Airfield :
LOGIN :

Register | Disclaimer

   EN    FR    IT 

 










Legend :    VFR   Marginal VFR   IFR   Intensive IFR   Very Intensive IFR
Visi :
Ceiling :
>= 8 km
>= 3000ft
5 to 8 km
1000 to 3000 ft
1500m to 5 km
500 to 1000 ft
800 to 1500m
200 to 500 ft
< 800m
< 200 ft
Symbols :   Thunderstorms  Fog  Heavy snow  Heavy precipitations  Wind > 20 kt
SIGMETs :     Misc.  Thunderstorms  Icing  Turbulence  Mountain Waves  Volcanic Ashes






- Airport Elevation : 794 ft


LKCV - Čáslav Air Base

CURRENT METAR :
  • 021600Z 09005KT CAVOK M01/M05 Q1017 NOSIG

EXPIRED METARs :
  • 021530Z 08005KT CAVOK M01/M05 Q1016 NOSIG
  • 021500Z 10007KT CAVOK M01/M05 Q1017 NOSIG RMK BLU BLU
  • 021430Z 11008KT CAVOK M01/M04 Q1017 NOSIG RMK BLU BLU
  • 021400Z 11006KT CAVOK M00/M04 Q1018 NOSIG RMK BLU BLU
  • 021330Z 11006KT CAVOK M00/M04 Q1018 NOSIG RMK BLU BLU

TAF TAF LKCV
Valid from the 02 at 12:00 until the 03 at 12:00 UTC


021100Z 0212/0312 12008KT CAVOK
TEMPO 0212/0215 BKN025
BECMG 0220/0222 BKN020
TEMPO 0303/0312 4000 SN BKN008 OVC020
PROB40
TEMPO 0306/0311 1500 SN BKN004 OVC008



MET'MAP, your aeronautical weather chart ! - Copyright ORBIFLY December 2007 - Disclaimer

ORBIFLY MET'MAP TEAM :

Programming & Development : Alexandra Zaïnal
Concept & original design : Baudouin d'Aumeries
Assistance for programming : Marc-Olivier Méhu
Technical & hardware support : Manuel Goepfert

Contact : metmap@orbifly.com




SOURCES & CREDITS :

   NOAA